sensor_id;sensor_type;location;lat;lon;timestamp;P1;durP1;ratioP1;P2;durP2;ratioP2
42186;SDS011;27858;51.414;0.018;2024-02-23T00:02:26;6.00;;;1.13;;
42186;SDS011;27858;51.414;0.018;2024-02-23T00:04:53;5.40;;;1.20;;
42186;SDS011;27858;51.414;0.018;2024-02-23T00:07:20;5.97;;;1.33;;
42186;SDS011;27858;51.414;0.018;2024-02-23T00:09:47;2.53;;;1.30;;
42186;SDS011;27858;51.414;0.018;2024-02-23T00:12:14;6.25;;;1.40;;
42186;SDS011;27858;51.414;0.018;2024-02-23T00:14:41;6.65;;;1.92;;
42186;SDS011;27858;51.414;0.018;2024-02-23T00:17:08;5.75;;;1.13;;
42186;SDS011;27858;51.414;0.018;2024-02-23T00:19:35;7.45;;;2.03;;
42186;SDS011;27858;51.414;0.018;2024-02-23T00:22:01;9.35;;;2.08;;
42186;SDS011;27858;51.414;0.018;2024-02-23T00:24:30;8.05;;;1.23;;
42186;SDS011;27858;51.414;0.018;2024-02-23T00:26:57;8.13;;;1.33;;
42186;SDS011;27858;51.414;0.018;2024-02-23T00:29:24;4.28;;;1.38;;
42186;SDS011;27858;51.414;0.018;2024-02-23T00:31:51;7.47;;;1.15;;
42186;SDS011;27858;51.414;0.018;2024-02-23T00:34:17;3.63;;;1.13;;
42186;SDS011;27858;51.414;0.018;2024-02-23T00:36:44;2.72;;;1.08;;
42186;SDS011;27858;51.414;0.018;2024-02-23T00:39:11;6.65;;;1.65;;
42186;SDS011;27858;51.414;0.018;2024-02-23T00:41:38;3.70;;;0.95;;
42186;SDS011;27858;51.414;0.018;2024-02-23T00:44:05;5.65;;;1.65;;
42186;SDS011;27858;51.414;0.018;2024-02-23T00:46:41;5.72;;;1.40;;
42186;SDS011;27858;51.414;0.018;2024-02-23T00:49:08;9.30;;;1.10;;
42186;SDS011;27858;51.414;0.018;2024-02-23T00:51:39;7.53;;;1.33;;
42186;SDS011;27858;51.414;0.018;2024-02-23T00:54:06;2.13;;;1.05;;
42186;SDS011;27858;51.414;0.018;2024-02-23T00:56:38;3.63;;;1.17;;
42186;SDS011;27858;51.414;0.018;2024-02-23T00:59:16;3.50;;;1.15;;
42186;SDS011;27858;51.414;0.018;2024-02-23T01:01:43;9.70;;;1.58;;
42186;SDS011;27858;51.414;0.018;2024-02-23T01:04:10;3.85;;;1.55;;
42186;SDS011;27858;51.414;0.018;2024-02-23T01:06:37;6.78;;;1.25;;
42186;SDS011;27858;51.414;0.018;2024-02-23T01:09:03;4.85;;;1.45;;
42186;SDS011;27858;51.414;0.018;2024-02-23T01:11:30;6.60;;;1.77;;
42186;SDS011;27858;51.414;0.018;2024-02-23T01:13:58;5.35;;;1.20;;
42186;SDS011;27858;51.414;0.018;2024-02-23T01:16:25;7.32;;;1.42;;
42186;SDS011;27858;51.414;0.018;2024-02-23T01:18:51;8.90;;;1.70;;
42186;SDS011;27858;51.414;0.018;2024-02-23T01:21:18;4.65;;;1.35;;
42186;SDS011;27858;51.414;0.018;2024-02-23T01:23:45;4.05;;;1.23;;
42186;SDS011;27858;51.414;0.018;2024-02-23T01:26:12;3.17;;;1.40;;
42186;SDS011;27858;51.414;0.018;2024-02-23T01:28:39;7.03;;;1.73;;
42186;SDS011;27858;51.414;0.018;2024-02-23T01:31:09;5.50;;;1.48;;
42186;SDS011;27858;51.414;0.018;2024-02-23T01:33:39;8.30;;;2.47;;
42186;SDS011;27858;51.414;0.018;2024-02-23T01:36:06;8.93;;;1.38;;
42186;SDS011;27858;51.414;0.018;2024-02-23T01:38:54;5.00;;;0.95;;
42186;SDS011;27858;51.414;0.018;2024-02-23T01:41:21;10.25;;;1.52;;
42186;SDS011;27858;51.414;0.018;2024-02-23T01:43:48;6.72;;;1.10;;
42186;SDS011;27858;51.414;0.018;2024-02-23T01:46:16;26.73;;;2.58;;
42186;SDS011;27858;51.414;0.018;2024-02-23T01:48:45;7.05;;;1.05;;
42186;SDS011;27858;51.414;0.018;2024-02-23T01:51:12;4.18;;;2.20;;
42186;SDS011;27858;51.414;0.018;2024-02-23T01:53:39;11.70;;;1.98;;
42186;SDS011;27858;51.414;0.018;2024-02-23T01:56:07;3.40;;;1.15;;
42186;SDS011;27858;51.414;0.018;2024-02-23T01:58:35;9.15;;;1.40;;
42186;SDS011;27858;51.414;0.018;2024-02-23T02:01:03;6.30;;;1.25;;
42186;SDS011;27858;51.414;0.018;2024-02-23T02:03:30;6.43;;;1.55;;
42186;SDS011;27858;51.414;0.018;2024-02-23T02:05:58;5.18;;;2.30;;
42186;SDS011;27858;51.414;0.018;2024-02-23T02:08:25;7.60;;;1.45;;
42186;SDS011;27858;51.414;0.018;2024-02-23T02:10:53;6.07;;;1.73;;
42186;SDS011;27858;51.414;0.018;2024-02-23T02:13:19;9.52;;;2.25;;
42186;SDS011;27858;51.414;0.018;2024-02-23T02:15:46;10.55;;;2.22;;
42186;SDS011;27858;51.414;0.018;2024-02-23T02:18:13;2.17;;;1.05;;
42186;SDS011;27858;51.414;0.018;2024-02-23T02:20:40;5.70;;;1.30;;
42186;SDS011;27858;51.414;0.018;2024-02-23T02:23:25;4.88;;;1.13;;
42186;SDS011;27858;51.414;0.018;2024-02-23T02:25:55;7.43;;;1.58;;
42186;SDS011;27858;51.414;0.018;2024-02-23T02:28:23;3.72;;;1.33;;
42186;SDS011;27858;51.414;0.018;2024-02-23T02:30:51;4.68;;;1.75;;
42186;SDS011;27858;51.414;0.018;2024-02-23T02:33:23;5.25;;;2.75;;
42186;SDS011;27858;51.414;0.018;2024-02-23T02:35:50;4.28;;;1.10;;
42186;SDS011;27858;51.414;0.018;2024-02-23T02:38:17;7.47;;;1.67;;
42186;SDS011;27858;51.414;0.018;2024-02-23T02:40:44;6.47;;;1.10;;
42186;SDS011;27858;51.414;0.018;2024-02-23T02:43:11;4.13;;;1.48;;
42186;SDS011;27858;51.414;0.018;2024-02-23T02:45:37;7.82;;;1.20;;
42186;SDS011;27858;51.414;0.018;2024-02-23T02:48:04;9.00;;;1.60;;
42186;SDS011;27858;51.414;0.018;2024-02-23T02:50:32;3.97;;;1.33;;
42186;SDS011;27858;51.414;0.018;2024-02-23T02:52:59;8.40;;;1.42;;
42186;SDS011;27858;51.414;0.018;2024-02-23T02:55:25;12.13;;;3.95;;
42186;SDS011;27858;51.414;0.018;2024-02-23T02:57:52;2.63;;;0.80;;
42186;SDS011;27858;51.414;0.018;2024-02-23T03:00:19;2.85;;;1.65;;
42186;SDS011;27858;51.414;0.018;2024-02-23T03:02:46;8.07;;;1.90;;
42186;SDS011;27858;51.414;0.018;2024-02-23T03:05:13;5.13;;;0.70;;
42186;SDS011;27858;51.414;0.018;2024-02-23T03:07:40;3.05;;;1.42;;
42186;SDS011;27858;51.414;0.018;2024-02-23T03:10:07;2.28;;;0.95;;
42186;SDS011;27858;51.414;0.018;2024-02-23T03:12:33;6.00;;;0.80;;
42186;SDS011;27858;51.414;0.018;2024-02-23T03:15:00;4.47;;;1.13;;
42186;SDS011;27858;51.414;0.018;2024-02-23T03:17:29;3.42;;;1.13;;
42186;SDS011;27858;51.414;0.018;2024-02-23T03:19:56;5.22;;;0.82;;
42186;SDS011;27858;51.414;0.018;2024-02-23T03:22:24;2.05;;;0.95;;
42186;SDS011;27858;51.414;0.018;2024-02-23T03:24:51;5.32;;;1.17;;
42186;SDS011;27858;51.414;0.018;2024-02-23T03:27:18;7.00;;;1.25;;
42186;SDS011;27858;51.414;0.018;2024-02-23T03:29:46;9.77;;;1.17;;
42186;SDS011;27858;51.414;0.018;2024-02-23T03:32:13;5.78;;;0.90;;
42186;SDS011;27858;51.414;0.018;2024-02-23T03:34:39;3.55;;;0.80;;
42186;SDS011;27858;51.414;0.018;2024-02-23T03:37:06;1.02;;;0.63;;
42186;SDS011;27858;51.414;0.018;2024-02-23T03:39:33;3.63;;;1.23;;
42186;SDS011;27858;51.414;0.018;2024-02-23T03:42:00;3.13;;;0.88;;
42186;SDS011;27858;51.414;0.018;2024-02-23T03:44:27;2.78;;;0.60;;
42186;SDS011;27858;51.414;0.018;2024-02-23T03:46:54;5.95;;;1.05;;
42186;SDS011;27858;51.414;0.018;2024-02-23T03:49:21;2.38;;;0.75;;
42186;SDS011;27858;51.414;0.018;2024-02-23T03:51:47;3.50;;;1.00;;
42186;SDS011;27858;51.414;0.018;2024-02-23T03:54:14;6.47;;;1.20;;
42186;SDS011;27858;51.414;0.018;2024-02-23T03:56:41;2.55;;;1.02;;
42186;SDS011;27858;51.414;0.018;2024-02-23T03:59:08;3.65;;;0.70;;
42186;SDS011;27858;51.414;0.018;2024-02-23T04:01:39;2.83;;;1.00;;
42186;SDS011;27858;51.414;0.018;2024-02-23T04:04:06;6.00;;;0.45;;
42186;SDS011;27858;51.414;0.018;2024-02-23T04:06:33;3.17;;;1.05;;
42186;SDS011;27858;51.414;0.018;2024-02-23T04:09:00;3.35;;;0.95;;
42186;SDS011;27858;51.414;0.018;2024-02-23T04:11:27;7.25;;;1.73;;
42186;SDS011;27858;51.414;0.018;2024-02-23T04:13:54;5.65;;;1.25;;
42186;SDS011;27858;51.414;0.018;2024-02-23T04:16:26;3.05;;;0.77;;
42186;SDS011;27858;51.414;0.018;2024-02-23T04:18:55;1.48;;;0.43;;
42186;SDS011;27858;51.414;0.018;2024-02-23T04:21:23;0.88;;;0.50;;
42186;SDS011;27858;51.414;0.018;2024-02-23T04:23:52;6.63;;;1.13;;
42186;SDS011;27858;51.414;0.018;2024-02-23T04:26:19;3.13;;;0.50;;
42186;SDS011;27858;51.414;0.018;2024-02-23T04:28:48;3.92;;;0.82;;
42186;SDS011;27858;51.414;0.018;2024-02-23T04:31:15;2.80;;;0.95;;
42186;SDS011;27858;51.414;0.018;2024-02-23T04:33:48;5.60;;;1.17;;
42186;SDS011;27858;51.414;0.018;2024-02-23T04:36:37;3.92;;;1.00;;
42186;SDS011;27858;51.414;0.018;2024-02-23T04:39:24;3.90;;;0.40;;
42186;SDS011;27858;51.414;0.018;2024-02-23T04:41:54;1.75;;;0.57;;
42186;SDS011;27858;51.414;0.018;2024-02-23T04:44:21;5.57;;;1.30;;
42186;SDS011;27858;51.414;0.018;2024-02-23T04:46:48;2.97;;;1.00;;
42186;SDS011;27858;51.414;0.018;2024-02-23T04:49:15;4.07;;;0.57;;
42186;SDS011;27858;51.414;0.018;2024-02-23T04:51:43;4.25;;;0.70;;
42186;SDS011;27858;51.414;0.018;2024-02-23T04:54:13;3.88;;;0.47;;
42186;SDS011;27858;51.414;0.018;2024-02-23T04:56:44;10.02;;;0.82;;
42186;SDS011;27858;51.414;0.018;2024-02-23T04:59:11;3.80;;;0.98;;
42186;SDS011;27858;51.414;0.018;2024-02-23T05:01:37;1.95;;;1.08;;
42186;SDS011;27858;51.414;0.018;2024-02-23T05:04:04;2.83;;;0.38;;
42186;SDS011;27858;51.414;0.018;2024-02-23T05:06:32;2.83;;;0.52;;
42186;SDS011;27858;51.414;0.018;2024-02-23T05:09:08;4.70;;;0.40;;
42186;SDS011;27858;51.414;0.018;2024-02-23T05:11:53;3.35;;;0.55;;
42186;SDS011;27858;51.414;0.018;2024-02-23T05:14:20;5.80;;;1.88;;
42186;SDS011;27858;51.414;0.018;2024-02-23T05:16:47;5.28;;;1.42;;
42186;SDS011;27858;51.414;0.018;2024-02-23T05:19:14;5.07;;;1.05;;
42186;SDS011;27858;51.414;0.018;2024-02-23T05:21:44;3.88;;;0.63;;
42186;SDS011;27858;51.414;0.018;2024-02-23T05:24:11;1.42;;;0.68;;
42186;SDS011;27858;51.414;0.018;2024-02-23T05:26:40;3.83;;;1.25;;
42186;SDS011;27858;51.414;0.018;2024-02-23T05:29:08;3.80;;;0.80;;
42186;SDS011;27858;51.414;0.018;2024-02-23T05:31:45;1.63;;;0.50;;
42186;SDS011;27858;51.414;0.018;2024-02-23T05:34:14;3.53;;;0.82;;
42186;SDS011;27858;51.414;0.018;2024-02-23T05:36:41;0.95;;;0.70;;
42186;SDS011;27858;51.414;0.018;2024-02-23T05:39:09;2.15;;;1.02;;
42186;SDS011;27858;51.414;0.018;2024-02-23T05:41:37;3.15;;;0.77;;
42186;SDS011;27858;51.414;0.018;2024-02-23T05:44:04;1.85;;;0.70;;
42186;SDS011;27858;51.414;0.018;2024-02-23T05:46:34;4.22;;;0.70;;
42186;SDS011;27858;51.414;0.018;2024-02-23T05:49:02;4.60;;;0.68;;
42186;SDS011;27858;51.414;0.018;2024-02-23T05:51:30;4.53;;;0.55;;
42186;SDS011;27858;51.414;0.018;2024-02-23T05:54:05;0.52;;;0.40;;
42186;SDS011;27858;51.414;0.018;2024-02-23T05:56:32;2.15;;;0.47;;
42186;SDS011;27858;51.414;0.018;2024-02-23T05:58:59;1.85;;;0.60;;
42186;SDS011;27858;51.414;0.018;2024-02-23T06:01:25;1.85;;;0.60;;
42186;SDS011;27858;51.414;0.018;2024-02-23T06:03:52;3.55;;;0.88;;
42186;SDS011;27858;51.414;0.018;2024-02-23T06:06:21;1.75;;;0.60;;
42186;SDS011;27858;51.414;0.018;2024-02-23T06:08:51;1.02;;;0.47;;
42186;SDS011;27858;51.414;0.018;2024-02-23T06:11:18;6.38;;;0.73;;
42186;SDS011;27858;51.414;0.018;2024-02-23T06:13:47;5.60;;;0.57;;
42186;SDS011;27858;51.414;0.018;2024-02-23T06:16:14;1.13;;;0.63;;
42186;SDS011;27858;51.414;0.018;2024-02-23T06:18:42;3.15;;;1.17;;
42186;SDS011;27858;51.414;0.018;2024-02-23T06:21:15;1.63;;;0.63;;
42186;SDS011;27858;51.414;0.018;2024-02-23T06:23:44;3.30;;;0.55;;
42186;SDS011;27858;51.414;0.018;2024-02-23T06:26:11;2.38;;;0.55;;
42186;SDS011;27858;51.414;0.018;2024-02-23T06:28:38;1.30;;;0.45;;
42186;SDS011;27858;51.414;0.018;2024-02-23T06:31:09;3.63;;;0.40;;
42186;SDS011;27858;51.414;0.018;2024-02-23T06:33:47;5.57;;;1.65;;
42186;SDS011;27858;51.414;0.018;2024-02-23T06:36:16;2.88;;;0.77;;
42186;SDS011;27858;51.414;0.018;2024-02-23T06:38:43;0.63;;;0.38;;
42186;SDS011;27858;51.414;0.018;2024-02-23T06:41:11;2.35;;;0.90;;
42186;SDS011;27858;51.414;0.018;2024-02-23T06:43:38;3.53;;;1.05;;
42186;SDS011;27858;51.414;0.018;2024-02-23T06:46:09;6.60;;;1.13;;
42186;SDS011;27858;51.414;0.018;2024-02-23T06:48:36;1.05;;;0.43;;
42186;SDS011;27858;51.414;0.018;2024-02-23T06:51:04;4.63;;;0.80;;
42186;SDS011;27858;51.414;0.018;2024-02-23T06:53:32;4.50;;;0.98;;
42186;SDS011;27858;51.414;0.018;2024-02-23T06:56:00;1.58;;;0.30;;
42186;SDS011;27858;51.414;0.018;2024-02-23T06:58:27;5.75;;;0.65;;
42186;SDS011;27858;51.414;0.018;2024-02-23T07:00:54;3.88;;;1.30;;
42186;SDS011;27858;51.414;0.018;2024-02-23T07:03:21;1.55;;;0.60;;
42186;SDS011;27858;51.414;0.018;2024-02-23T07:05:48;1.38;;;0.50;;
42186;SDS011;27858;51.414;0.018;2024-02-23T07:08:16;4.07;;;1.75;;
42186;SDS011;27858;51.414;0.018;2024-02-23T07:10:43;2.40;;;0.68;;
42186;SDS011;27858;51.414;0.018;2024-02-23T07:13:13;4.38;;;0.88;;
42186;SDS011;27858;51.414;0.018;2024-02-23T07:15:40;5.25;;;0.95;;
42186;SDS011;27858;51.414;0.018;2024-02-23T07:18:07;3.47;;;1.35;;
42186;SDS011;27858;51.414;0.018;2024-02-23T07:20:37;3.97;;;0.60;;
42186;SDS011;27858;51.414;0.018;2024-02-23T07:23:05;3.85;;;0.70;;
42186;SDS011;27858;51.414;0.018;2024-02-23T07:25:32;7.53;;;3.85;;
42186;SDS011;27858;51.414;0.018;2024-02-23T07:27:59;11.50;;;2.50;;
42186;SDS011;27858;51.414;0.018;2024-02-23T07:30:26;7.88;;;3.53;;
42186;SDS011;27858;51.414;0.018;2024-02-23T07:32:53;8.93;;;3.17;;
42186;SDS011;27858;51.414;0.018;2024-02-23T07:35:20;7.18;;;3.45;;
42186;SDS011;27858;51.414;0.018;2024-02-23T07:37:47;10.30;;;5.47;;
42186;SDS011;27858;51.414;0.018;2024-02-23T07:40:14;36.15;;;14.70;;
42186;SDS011;27858;51.414;0.018;2024-02-23T07:42:46;24.25;;;8.38;;
42186;SDS011;27858;51.414;0.018;2024-02-23T07:45:13;34.63;;;11.43;;
42186;SDS011;27858;51.414;0.018;2024-02-23T07:47:40;18.80;;;7.35;;
42186;SDS011;27858;51.414;0.018;2024-02-23T07:50:07;10.27;;;3.85;;
42186;SDS011;27858;51.414;0.018;2024-02-23T07:52:34;11.23;;;6.28;;
42186;SDS011;27858;51.414;0.018;2024-02-23T07:55:01;9.32;;;3.63;;
42186;SDS011;27858;51.414;0.018;2024-02-23T07:57:31;11.13;;;5.90;;
42186;SDS011;27858;51.414;0.018;2024-02-23T07:59:59;7.95;;;2.92;;
42186;SDS011;27858;51.414;0.018;2024-02-23T08:02:26;12.18;;;5.00;;
42186;SDS011;27858;51.414;0.018;2024-02-23T08:04:53;10.75;;;3.47;;
42186;SDS011;27858;51.414;0.018;2024-02-23T08:07:20;12.93;;;5.53;;
42186;SDS011;27858;51.414;0.018;2024-02-23T08:09:49;13.50;;;4.78;;
42186;SDS011;27858;51.414;0.018;2024-02-23T08:12:16;6.95;;;2.47;;
42186;SDS011;27858;51.414;0.018;2024-02-23T08:14:43;10.57;;;4.50;;
42186;SDS011;27858;51.414;0.018;2024-02-23T08:17:11;18.92;;;5.97;;
42186;SDS011;27858;51.414;0.018;2024-02-23T08:19:38;10.13;;;4.28;;
42186;SDS011;27858;51.414;0.018;2024-02-23T08:22:05;4.57;;;2.00;;
42186;SDS011;27858;51.414;0.018;2024-02-23T08:24:32;8.13;;;2.95;;
42186;SDS011;27858;51.414;0.018;2024-02-23T08:26:59;9.63;;;3.42;;
42186;SDS011;27858;51.414;0.018;2024-02-23T08:29:26;11.02;;;4.25;;
42186;SDS011;27858;51.414;0.018;2024-02-23T08:31:54;9.27;;;2.78;;
42186;SDS011;27858;51.414;0.018;2024-02-23T08:34:20;12.50;;;2.83;;
42186;SDS011;27858;51.414;0.018;2024-02-23T08:36:48;8.48;;;3.58;;
42186;SDS011;27858;51.414;0.018;2024-02-23T08:39:15;5.47;;;2.25;;
42186;SDS011;27858;51.414;0.018;2024-02-23T08:41:42;6.95;;;2.35;;
42186;SDS011;27858;51.414;0.018;2024-02-23T08:44:09;13.70;;;4.60;;
42186;SDS011;27858;51.414;0.018;2024-02-23T08:46:36;6.38;;;1.35;;
42186;SDS011;27858;51.414;0.018;2024-02-23T08:49:05;6.97;;;1.52;;
42186;SDS011;27858;51.414;0.018;2024-02-23T08:51:32;10.95;;;3.17;;
42186;SDS011;27858;51.414;0.018;2024-02-23T08:53:59;7.88;;;2.83;;
42186;SDS011;27858;51.414;0.018;2024-02-23T08:56:31;8.88;;;3.50;;
42186;SDS011;27858;51.414;0.018;2024-02-23T08:58:58;16.92;;;4.43;;
42186;SDS011;27858;51.414;0.018;2024-02-23T09:01:25;15.20;;;6.00;;
42186;SDS011;27858;51.414;0.018;2024-02-23T09:03:52;20.50;;;7.93;;
42186;SDS011;27858;51.414;0.018;2024-02-23T09:06:19;10.00;;;3.70;;
42186;SDS011;27858;51.414;0.018;2024-02-23T09:08:46;10.18;;;4.05;;
42186;SDS011;27858;51.414;0.018;2024-02-23T09:11:14;5.03;;;2.25;;
42186;SDS011;27858;51.414;0.018;2024-02-23T09:13:41;9.25;;;3.60;;
42186;SDS011;27858;51.414;0.018;2024-02-23T09:16:08;8.75;;;3.33;;
42186;SDS011;27858;51.414;0.018;2024-02-23T09:18:35;3.85;;;1.52;;
42186;SDS011;27858;51.414;0.018;2024-02-23T09:21:04;3.72;;;1.67;;
42186;SDS011;27858;51.414;0.018;2024-02-23T09:23:33;11.82;;;3.13;;
42186;SDS011;27858;51.414;0.018;2024-02-23T09:26:08;5.63;;;2.38;;
42186;SDS011;27858;51.414;0.018;2024-02-23T09:28:36;7.78;;;3.75;;
42186;SDS011;27858;51.414;0.018;2024-02-23T09:31:03;7.80;;;2.40;;
42186;SDS011;27858;51.414;0.018;2024-02-23T09:33:33;11.65;;;3.30;;
42186;SDS011;27858;51.414;0.018;2024-02-23T09:36:03;4.00;;;2.15;;
42186;SDS011;27858;51.414;0.018;2024-02-23T09:38:30;4.97;;;1.45;;
42186;SDS011;27858;51.414;0.018;2024-02-23T09:40:58;2.15;;;0.90;;
42186;SDS011;27858;51.414;0.018;2024-02-23T09:43:28;6.25;;;1.10;;
42186;SDS011;27858;51.414;0.018;2024-02-23T09:45:59;6.53;;;2.17;;
42186;SDS011;27858;51.414;0.018;2024-02-23T09:48:26;3.53;;;1.40;;
42186;SDS011;27858;51.414;0.018;2024-02-23T09:50:54;3.22;;;1.20;;
42186;SDS011;27858;51.414;0.018;2024-02-23T09:53:23;5.75;;;1.40;;
42186;SDS011;27858;51.414;0.018;2024-02-23T09:55:50;8.02;;;1.48;;
42186;SDS011;27858;51.414;0.018;2024-02-23T09:58:19;5.93;;;2.95;;
42186;SDS011;27858;51.414;0.018;2024-02-23T10:00:48;5.60;;;2.42;;
42186;SDS011;27858;51.414;0.018;2024-02-23T10:03:15;6.03;;;1.25;;
42186;SDS011;27858;51.414;0.018;2024-02-23T10:05:42;8.85;;;2.85;;
42186;SDS011;27858;51.414;0.018;2024-02-23T10:08:10;13.18;;;3.60;;
42186;SDS011;27858;51.414;0.018;2024-02-23T10:10:39;7.97;;;2.75;;
42186;SDS011;27858;51.414;0.018;2024-02-23T10:13:06;8.68;;;2.08;;
42186;SDS011;27858;51.414;0.018;2024-02-23T10:15:34;3.45;;;1.10;;
42186;SDS011;27858;51.414;0.018;2024-02-23T10:18:01;3.22;;;1.42;;
42186;SDS011;27858;51.414;0.018;2024-02-23T10:20:27;6.28;;;2.22;;
42186;SDS011;27858;51.414;0.018;2024-02-23T10:22:55;6.57;;;3.08;;
42186;SDS011;27858;51.414;0.018;2024-02-23T10:25:23;8.10;;;2.45;;
42186;SDS011;27858;51.414;0.018;2024-02-23T10:27:50;4.35;;;1.52;;
42186;SDS011;27858;51.414;0.018;2024-02-23T10:30:17;5.10;;;1.35;;
42186;SDS011;27858;51.414;0.018;2024-02-23T10:32:43;3.95;;;1.55;;
42186;SDS011;27858;51.414;0.018;2024-02-23T10:35:15;3.72;;;1.30;;
42186;SDS011;27858;51.414;0.018;2024-02-23T10:37:43;5.68;;;1.42;;
42186;SDS011;27858;51.414;0.018;2024-02-23T10:40:13;5.03;;;1.55;;
42186;SDS011;27858;51.414;0.018;2024-02-23T10:42:46;6.38;;;1.35;;
42186;SDS011;27858;51.414;0.018;2024-02-23T10:45:17;4.93;;;1.30;;
42186;SDS011;27858;51.414;0.018;2024-02-23T10:47:45;3.88;;;0.93;;
42186;SDS011;27858;51.414;0.018;2024-02-23T10:50:14;2.80;;;1.20;;
42186;SDS011;27858;51.414;0.018;2024-02-23T10:52:42;4.90;;;1.27;;
42186;SDS011;27858;51.414;0.018;2024-02-23T10:55:09;1.75;;;0.95;;
42186;SDS011;27858;51.414;0.018;2024-02-23T10:57:37;4.18;;;0.90;;
42186;SDS011;27858;51.414;0.018;2024-02-23T11:00:06;6.35;;;1.30;;
42186;SDS011;27858;51.414;0.018;2024-02-23T11:02:39;11.00;;;2.70;;
42186;SDS011;27858;51.414;0.018;2024-02-23T11:05:12;6.70;;;1.20;;
42186;SDS011;27858;51.414;0.018;2024-02-23T11:07:41;6.40;;;1.15;;
42186;SDS011;27858;51.414;0.018;2024-02-23T11:10:12;5.65;;;1.85;;
42186;SDS011;27858;51.414;0.018;2024-02-23T11:12:39;6.40;;;1.20;;
42186;SDS011;27858;51.414;0.018;2024-02-23T11:15:06;3.80;;;1.65;;
42186;SDS011;27858;51.414;0.018;2024-02-23T11:17:35;3.78;;;1.58;;
42186;SDS011;27858;51.414;0.018;2024-02-23T11:20:05;7.80;;;2.05;;
42186;SDS011;27858;51.414;0.018;2024-02-23T11:22:34;6.22;;;1.17;;
42186;SDS011;27858;51.414;0.018;2024-02-23T11:25:05;4.68;;;1.38;;
42186;SDS011;27858;51.414;0.018;2024-02-23T11:27:37;7.03;;;1.30;;
42186;SDS011;27858;51.414;0.018;2024-02-23T11:30:07;4.10;;;1.05;;
42186;SDS011;27858;51.414;0.018;2024-02-23T11:35:09;3.57;;;0.90;;
42186;SDS011;27858;51.414;0.018;2024-02-23T11:37:51;7.85;;;1.40;;
42186;SDS011;27858;51.414;0.018;2024-02-23T11:40:31;8.13;;;1.58;;
42186;SDS011;27858;51.414;0.018;2024-02-23T11:42:59;10.60;;;1.67;;
42186;SDS011;27858;51.414;0.018;2024-02-23T11:45:30;7.43;;;1.05;;
42186;SDS011;27858;51.414;0.018;2024-02-23T11:47:58;5.10;;;1.35;;
42186;SDS011;27858;51.414;0.018;2024-02-23T11:50:26;5.88;;;1.65;;
42186;SDS011;27858;51.414;0.018;2024-02-23T11:52:53;3.28;;;1.00;;
42186;SDS011;27858;51.414;0.018;2024-02-23T11:55:21;2.75;;;1.33;;
42186;SDS011;27858;51.414;0.018;2024-02-23T11:57:50;6.18;;;1.17;;
42186;SDS011;27858;51.414;0.018;2024-02-23T12:00:31;3.63;;;1.23;;
42186;SDS011;27858;51.414;0.018;2024-02-23T12:02:58;5.25;;;1.55;;
42186;SDS011;27858;51.414;0.018;2024-02-23T12:05:26;4.65;;;0.85;;
42186;SDS011;27858;51.414;0.018;2024-02-23T12:07:53;3.10;;;1.17;;
42186;SDS011;27858;51.414;0.018;2024-02-23T12:10:21;3.08;;;0.88;;
42186;SDS011;27858;51.414;0.018;2024-02-23T12:12:48;3.60;;;1.58;;
42186;SDS011;27858;51.414;0.018;2024-02-23T12:15:16;5.20;;;1.00;;
42186;SDS011;27858;51.414;0.018;2024-02-23T12:17:46;7.10;;;1.30;;
42186;SDS011;27858;51.414;0.018;2024-02-23T12:20:14;2.13;;;0.60;;
42186;SDS011;27858;51.414;0.018;2024-02-23T12:22:42;4.15;;;1.67;;
42186;SDS011;27858;51.414;0.018;2024-02-23T12:25:09;3.20;;;0.75;;
42186;SDS011;27858;51.414;0.018;2024-02-23T12:27:37;2.47;;;0.60;;
42186;SDS011;27858;51.414;0.018;2024-02-23T12:30:04;2.90;;;0.50;;
42186;SDS011;27858;51.414;0.018;2024-02-23T12:32:32;6.53;;;1.10;;
42186;SDS011;27858;51.414;0.018;2024-02-23T12:34:59;1.67;;;1.00;;
42186;SDS011;27858;51.414;0.018;2024-02-23T12:37:26;10.05;;;1.55;;
42186;SDS011;27858;51.414;0.018;2024-02-23T12:39:52;5.60;;;1.23;;
42186;SDS011;27858;51.414;0.018;2024-02-23T12:42:19;1.63;;;0.90;;
42186;SDS011;27858;51.414;0.018;2024-02-23T12:44:48;2.97;;;1.38;;
42186;SDS011;27858;51.414;0.018;2024-02-23T12:47:15;3.55;;;1.30;;
42186;SDS011;27858;51.414;0.018;2024-02-23T12:49:42;2.42;;;0.70;;
42186;SDS011;27858;51.414;0.018;2024-02-23T12:52:11;4.10;;;1.45;;
42186;SDS011;27858;51.414;0.018;2024-02-23T12:54:38;3.75;;;1.38;;
42186;SDS011;27858;51.414;0.018;2024-02-23T12:57:06;5.35;;;1.30;;
42186;SDS011;27858;51.414;0.018;2024-02-23T12:59:33;3.17;;;1.42;;
42186;SDS011;27858;51.414;0.018;2024-02-23T13:02:01;15.80;;;4.40;;
42186;SDS011;27858;51.414;0.018;2024-02-23T13:04:29;5.88;;;1.30;;
42186;SDS011;27858;51.414;0.018;2024-02-23T13:06:56;4.50;;;1.10;;
42186;SDS011;27858;51.414;0.018;2024-02-23T13:09:25;8.73;;;1.92;;
42186;SDS011;27858;51.414;0.018;2024-02-23T13:11:51;7.53;;;1.73;;
42186;SDS011;27858;51.414;0.018;2024-02-23T13:14:19;5.45;;;1.38;;
42186;SDS011;27858;51.414;0.018;2024-02-23T13:16:46;5.22;;;1.65;;
42186;SDS011;27858;51.414;0.018;2024-02-23T13:19:13;7.28;;;1.42;;
42186;SDS011;27858;51.414;0.018;2024-02-23T13:21:40;4.45;;;0.90;;
42186;SDS011;27858;51.414;0.018;2024-02-23T13:24:07;6.97;;;1.90;;
42186;SDS011;27858;51.414;0.018;2024-02-23T13:26:34;4.93;;;1.50;;
42186;SDS011;27858;51.414;0.018;2024-02-23T13:29:01;4.38;;;1.50;;
42186;SDS011;27858;51.414;0.018;2024-02-23T13:31:28;7.38;;;1.75;;
42186;SDS011;27858;51.414;0.018;2024-02-23T13:33:55;8.30;;;1.88;;
42186;SDS011;27858;51.414;0.018;2024-02-23T13:36:22;8.60;;;1.40;;
42186;SDS011;27858;51.414;0.018;2024-02-23T13:38:48;4.65;;;1.38;;
42186;SDS011;27858;51.414;0.018;2024-02-23T13:41:17;3.20;;;1.20;;
42186;SDS011;27858;51.414;0.018;2024-02-23T13:43:44;7.53;;;2.33;;
42186;SDS011;27858;51.414;0.018;2024-02-23T13:46:11;13.75;;;3.10;;
42186;SDS011;27858;51.414;0.018;2024-02-23T13:48:38;3.92;;;2.00;;
42186;SDS011;27858;51.414;0.018;2024-02-23T13:51:07;4.65;;;1.65;;
42186;SDS011;27858;51.414;0.018;2024-02-23T13:53:34;6.70;;;1.85;;
42186;SDS011;27858;51.414;0.018;2024-02-23T13:56:03;6.50;;;2.85;;
42186;SDS011;27858;51.414;0.018;2024-02-23T13:58:31;6.75;;;2.60;;
42186;SDS011;27858;51.414;0.018;2024-02-23T14:00:59;14.57;;;2.83;;
42186;SDS011;27858;51.414;0.018;2024-02-23T14:03:26;4.00;;;1.63;;
42186;SDS011;27858;51.414;0.018;2024-02-23T14:05:53;4.63;;;1.92;;
42186;SDS011;27858;51.414;0.018;2024-02-23T14:08:21;7.85;;;2.90;;
42186;SDS011;27858;51.414;0.018;2024-02-23T14:10:48;3.42;;;1.35;;
42186;SDS011;27858;51.414;0.018;2024-02-23T14:13:14;3.03;;;1.55;;
42186;SDS011;27858;51.414;0.018;2024-02-23T14:15:41;2.17;;;0.75;;
42186;SDS011;27858;51.414;0.018;2024-02-23T14:18:08;6.32;;;1.45;;
42186;SDS011;27858;51.414;0.018;2024-02-23T14:20:35;6.47;;;2.17;;
42186;SDS011;27858;51.414;0.018;2024-02-23T14:23:02;10.13;;;2.30;;
42186;SDS011;27858;51.414;0.018;2024-02-23T14:25:29;2.53;;;1.45;;
42186;SDS011;27858;51.414;0.018;2024-02-23T14:27:56;4.85;;;1.73;;
42186;SDS011;27858;51.414;0.018;2024-02-23T14:30:23;9.95;;;2.28;;
42186;SDS011;27858;51.414;0.018;2024-02-23T14:32:50;4.82;;;1.63;;
42186;SDS011;27858;51.414;0.018;2024-02-23T14:35:18;4.55;;;1.75;;
42186;SDS011;27858;51.414;0.018;2024-02-23T14:37:45;8.52;;;2.22;;
42186;SDS011;27858;51.414;0.018;2024-02-23T14:40:13;4.72;;;1.52;;
42186;SDS011;27858;51.414;0.018;2024-02-23T14:42:43;15.45;;;2.03;;
42186;SDS011;27858;51.414;0.018;2024-02-23T14:45:11;7.07;;;1.75;;
42186;SDS011;27858;51.414;0.018;2024-02-23T14:47:45;4.05;;;1.27;;
42186;SDS011;27858;51.414;0.018;2024-02-23T14:50:27;4.55;;;1.45;;
42186;SDS011;27858;51.414;0.018;2024-02-23T14:52:55;4.63;;;1.30;;
42186;SDS011;27858;51.414;0.018;2024-02-23T14:55:28;6.35;;;1.05;;